Time;durP1;ratioP1;P1;durP2;ratioP2;P2;SDS_P1;SDS_P2;PMS_P1;PMS_P2;Temp;Humidity;BMP_temperature;BMP_pressure;BME280_temperature;BME280_humidity;BME280_pressure;Samples;Min_cycle;Max_cycle;Signal;HPM_P1;HPM_P2
2022/01/10 00:00:41;;;;;;;2.40;1.42;;;9.50;82.40;;;;;;5097226;28;20070;-48
2022/01/10 00:03:07;;;;;;;3.83;1.50;;;9.50;82.30;;;;;;5115614;28;20043;-54
2022/01/10 00:05:33;;;;;;;2.47;1.48;;;9.50;82.40;;;;;;5115832;28;20126;-57
2022/01/10 00:08:02;;;;;;;2.53;1.30;;;9.40;82.30;;;;;;5115500;28;20123;-59
2022/01/10 00:10:29;;;;;;;2.00;1.23;;;9.50;82.40;;;;;;5115710;28;20118;-55
2022/01/10 00:12:54;;;;;;;1.67;1.35;;;9.50;82.30;;;;;;5115783;28;20093;-55
2022/01/10 00:15:20;;;;;;;3.08;1.58;;;9.50;82.30;;;;;;5115689;28;20044;-50
2022/01/10 00:17:46;;;;;;;3.65;1.80;;;9.50;82.30;;;;;;5115961;28;20048;-54
2022/01/10 00:20:16;;;;;;;2.90;1.45;;;9.50;82.30;;;;;;5115685;28;20032;-58
2022/01/10 00:22:48;;;;;;;3.72;1.20;;;9.50;82.30;;;;;;5097367;28;20063;-63
2022/01/10 00:25:15;;;;;;;2.35;1.50;;;9.50;82.30;;;;;;5115106;28;20055;-55
2022/01/10 00:27:41;;;;;;;2.90;1.40;;;9.50;82.30;;;;;;5115421;28;20036;-48
2022/01/10 00:30:10;;;;;;;2.45;1.77;;;9.50;82.30;;;;;;5115565;28;20063;-49
2022/01/10 00:32:36;;;;;;;2.42;1.50;;;9.50;82.30;;;;;;5115441;28;20043;-47
2022/01/10 00:35:02;;;;;;;3.13;1.52;;;9.50;82.20;;;;;;5107171;28;20122;-50
2022/01/10 00:37:28;;;;;;;3.15;1.65;;;9.50;82.30;;;;;;5095080;28;20091;-54
2022/01/10 00:39:54;;;;;;;2.78;1.33;;;9.50;82.30;;;;;;5094461;28;20512;-50
2022/01/10 00:42:20;;;;;;;2.75;1.50;;;9.50;82.20;;;;;;5094524;28;20079;-52
2022/01/10 00:44:51;;;;;;;3.63;1.58;;;9.50;82.20;;;;;;5094385;28;20127;-50
2022/01/10 00:47:17;;;;;;;3.42;1.48;;;9.50;82.20;;;;;;5094245;28;20140;-51
2022/01/10 00:49:43;;;;;;;2.80;1.42;;;9.50;82.20;;;;;;5094570;28;20097;-50
2022/01/10 00:52:09;;;;;;;4.35;1.95;;;9.50;82.20;;;;;;5093879;28;20032;-53
2022/01/10 00:54:35;;;;;;;3.03;1.75;;;9.40;82.20;;;;;;5094254;28;20042;-50
2022/01/10 00:57:00;;;;;;;3.33;1.80;;;9.50;82.20;;;;;;5093806;28;20561;-51
2022/01/10 00:59:26;;;;;;;2.78;1.23;;;9.50;82.20;;;;;;5102725;28;20357;-50
2022/01/10 01:01:52;;;;;;;3.72;1.98;;;9.50;82.20;;;;;;5096413;28;20444;-50
2022/01/10 01:04:18;;;;;;;3.30;1.60;;;9.50;82.20;;;;;;5099300;28;20040;-53
2022/01/10 01:06:44;;;;;;;2.67;1.30;;;9.50;82.20;;;;;;5094563;28;20451;-49
2022/01/10 01:09:14;;;;;;;2.67;1.45;;;9.40;82.20;;;;;;5094522;28;20111;-53
2022/01/10 01:14:10;;;;;;;3.88;1.73;;;9.40;82.20;;;;;;5094151;28;20074;-53
2022/01/10 01:19:27;;;;;;;3.30;1.80;;;9.40;82.20;;;;;;5114029;28;20055;-49
2022/01/10 01:24:33;;;;;;;3.83;1.70;;;9.40;82.10;;;;;;5114369;28;20044;-52
2022/01/10 01:26:59;;;;;;;2.10;1.40;;;9.40;82.10;;;;;;5114464;28;20188;-51
2022/01/10 01:29:29;;;;;;;2.10;1.77;;;9.50;82.20;;;;;;5113747;28;20040;-48
2022/01/10 01:31:56;;;;;;;3.63;1.70;;;9.40;82.80;;;;;;5114345;28;20130;-53
2022/01/10 01:34:24;;;;;;;2.55;1.55;;;9.50;82.20;;;;;;5114328;28;20035;-50
2022/01/10 01:36:53;;;;;;;3.88;1.85;;;9.50;82.20;;;;;;5114039;28;20479;-56
2022/01/10 01:39:23;;;;;;;4.53;2.17;;;9.40;82.10;;;;;;5113813;28;20048;-54
2022/01/10 01:41:53;;;;;;;4.15;1.50;;;9.40;82.10;;;;;;5113920;28;20079;-48
2022/01/10 01:44:19;;;;;;;2.85;1.73;;;9.50;82.80;;;;;;5113281;28;20514;-51
2022/01/10 01:46:45;;;;;;;4.38;1.80;;;9.50;82.10;;;;;;5113827;28;20063;-53
2022/01/10 01:49:12;;;;;;;3.83;1.77;;;9.40;82.10;;;;;;5113787;28;20083;-50
2022/01/10 01:51:38;;;;;;;2.38;1.33;;;9.40;82.10;;;;;;5109906;28;20043;-51
2022/01/10 01:54:05;;;;;;;4.35;1.92;;;9.40;82.10;;;;;;5093357;28;20080;-59
2022/01/10 01:56:31;;;;;;;4.05;1.75;;;9.50;82.10;;;;;;5093675;28;20467;-49
2022/01/10 01:58:57;;;;;;;3.47;1.90;;;9.40;82.10;;;;;;5092802;28;20044;-49
2022/01/10 02:01:24;;;;;;;3.55;1.70;;;9.40;82.00;;;;;;5073987;28;20423;-51
2022/01/10 02:03:51;;;;;;;3.72;1.85;;;9.40;82.10;;;;;;5091710;28;20369;-52
2022/01/10 02:06:17;;;;;;;3.00;1.70;;;9.40;82.10;;;;;;5092789;28;20044;-49
2022/01/10 02:08:44;;;;;;;3.35;1.70;;;9.40;82.00;;;;;;5092865;28;20051;-51
2022/01/10 02:11:12;;;;;;;4.28;1.77;;;9.40;82.10;;;;;;5103662;28;20115;-49
2022/01/10 02:13:38;;;;;;;2.45;1.38;;;9.50;82.10;;;;;;5113358;28;20479;-54
2022/01/10 02:16:06;;;;;;;3.88;1.50;;;9.50;82.10;;;;;;5095171;28;20125;-53
2022/01/10 02:18:33;;;;;;;4.05;1.95;;;9.40;82.00;;;;;;5092997;28;20141;-49
2022/01/10 02:21:01;;;;;;;3.90;1.50;;;9.50;82.10;;;;;;5093001;28;20059;-48
2022/01/10 02:23:28;;;;;;;2.35;1.50;;;9.40;82.00;;;;;;5092792;28;20035;-51
2022/01/10 02:25:55;;;;;;;3.17;1.90;;;9.40;82.00;;;;;;5092950;28;20518;-48
2022/01/10 02:28:21;;;;;;;2.20;1.48;;;9.40;82.00;;;;;;5111602;28;20043;-49
2022/01/10 02:30:52;;;;;;;3.97;1.60;;;9.40;82.00;;;;;;5112684;28;20043;-47
2022/01/10 02:33:18;;;;;;;2.53;1.80;;;9.40;82.00;;;;;;5112959;28;20086;-51
2022/01/10 02:36:01;;;;;;;2.78;1.60;;;9.60;82.10;;;;;;5112971;28;20086;-50
2022/01/10 02:38:27;;;;;;;2.08;1.38;;;9.50;82.00;;;;;;5112864;28;20123;-49
2022/01/10 02:40:54;;;;;;;2.53;1.60;;;9.40;82.00;;;;;;5113169;28;20462;-54
2022/01/10 02:43:20;;;;;;;3.83;1.80;;;9.40;82.00;;;;;;5113292;28;20123;-49
2022/01/10 02:45:47;;;;;;;2.00;1.48;;;9.40;82.00;;;;;;5113041;28;20087;-50
2022/01/10 02:48:13;;;;;;;3.00;1.75;;;9.40;82.00;;;;;;5112407;28;20430;-48
2022/01/10 02:50:38;;;;;;;1.85;1.40;;;9.50;82.00;;;;;;5112728;28;20040;-48
2022/01/10 02:53:04;;;;;;;2.65;1.80;;;9.40;82.00;;;;;;5094790;28;20062;-51
2022/01/10 02:55:30;;;;;;;2.75;1.67;;;9.40;81.90;;;;;;5112922;28;20526;-47
2022/01/10 02:57:56;;;;;;;2.75;1.67;;;9.40;82.00;;;;;;5112712;28;20039;-53
2022/01/10 03:00:25;;;;;;;2.80;1.60;;;9.40;82.00;;;;;;5112575;28;20044;-47
2022/01/10 03:02:53;;;;;;;2.35;1.60;;;9.40;82.00;;;;;;5092058;28;20121;-61
2022/01/10 03:05:21;;;;;;;4.22;2.17;;;9.40;82.00;;;;;;5092342;28;20040;-61
2022/01/10 03:07:48;;;;;;;2.83;1.83;;;9.40;82.00;;;;;;5092702;28;20044;-60
2022/01/10 03:10:15;;;;;;;2.38;1.48;;;9.40;82.00;;;;;;5074173;28;20044;-57
2022/01/10 03:12:41;;;;;;;2.92;1.90;;;9.40;82.00;;;;;;5092107;28;20499;-62
2022/01/10 03:15:08;;;;;;;3.10;1.63;;;9.40;82.00;;;;;;5093416;28;20134;-60
2022/01/10 03:17:35;;;;;;;2.50;1.88;;;9.40;82.00;;;;;;5095796;28;20040;-64
2022/01/10 03:20:01;;;;;;;3.45;2.10;;;9.40;82.00;;;;;;5095657;28;20100;-56
2022/01/10 03:22:27;;;;;;;3.08;1.85;;;9.30;81.90;;;;;;5096066;28;20127;-59
2022/01/10 03:24:53;;;;;;;3.00;1.73;;;9.40;81.90;;;;;;5096222;28;20117;-57
2022/01/10 03:27:19;;;;;;;2.63;1.95;;;9.40;82.00;;;;;;5096046;28;20422;-55
2022/01/10 03:29:45;;;;;;;3.22;1.75;;;9.40;82.00;;;;;;5095785;28;20050;-55
2022/01/10 03:32:11;;;;;;;4.03;1.60;;;9.40;82.00;;;;;;5116681;28;20036;-53
2022/01/10 03:34:38;;;;;;;2.85;1.88;;;9.40;82.00;;;;;;5109215;28;20040;-56
2022/01/10 03:37:04;;;;;;;2.75;1.77;;;9.40;82.00;;;;;;5095793;28;20084;-56
2022/01/10 03:39:30;;;;;;;3.20;1.90;;;9.40;82.00;;;;;;5096310;28;20399;-60
2022/01/10 03:41:55;;;;;;;3.42;1.70;;;9.40;81.90;;;;;;5111715;28;20052;-55
2022/01/10 03:44:21;;;;;;;2.78;1.42;;;9.40;82.00;;;;;;5095816;28;20052;-53
2022/01/10 03:46:47;;;;;;;2.35;1.50;;;9.40;82.00;;;;;;5102335;28;20059;-55
2022/01/10 03:49:13;;;;;;;2.35;1.38;;;9.40;81.90;;;;;;5116416;28;20035;-54
2022/01/10 03:51:39;;;;;;;3.40;1.77;;;9.40;82.00;;;;;;5115583;28;20484;-53
2022/01/10 03:54:05;;;;;;;4.07;1.85;;;9.40;81.90;;;;;;5115786;28;20063;-59
2022/01/10 03:56:32;;;;;;;3.55;1.90;;;9.40;81.90;;;;;;5116279;28;20043;-51
2022/01/10 03:58:58;;;;;;;3.65;1.88;;;9.40;82.00;;;;;;5116278;28;20040;-53
2022/01/10 04:01:24;;;;;;;2.03;1.67;;;9.40;82.00;;;;;;5115945;28;20447;-57
2022/01/10 04:03:51;;;;;;;2.97;1.65;;;9.40;82.00;;;;;;5116233;28;20040;-52
2022/01/10 04:06:17;;;;;;;1.95;1.55;;;9.30;81.90;;;;;;5116031;28;20130;-58
2022/01/10 04:08:43;;;;;;;2.67;2.00;;;9.40;81.90;;;;;;5115471;28;20134;-58
2022/01/10 04:11:08;;;;;;;2.05;1.58;;;9.40;81.90;;;;;;5115811;28;20043;-57
2022/01/10 04:13:34;;;;;;;3.83;1.90;;;9.40;82.00;;;;;;5115820;28;20047;-61
2022/01/10 04:16:00;;;;;;;4.03;1.80;;;9.30;81.90;;;;;;5115661;28;20051;-59
2022/01/10 04:18:26;;;;;;;2.67;1.70;;;9.40;82.60;;;;;;5115997;28;20040;-53
2022/01/10 04:20:51;;;;;;;2.97;1.65;;;9.40;81.90;;;;;;5115819;28;20488;-50
2022/01/10 04:23:18;;;;;;;2.30;1.73;;;9.40;81.90;;;;;;5108282;28;20035;-50
2022/01/10 04:25:44;;;;;;;3.00;1.90;;;9.30;81.90;;;;;;5095165;28;20044;-50
2022/01/10 04:28:10;;;;;;;2.13;1.52;;;9.30;81.90;;;;;;5094423;28;20036;-55
2022/01/10 04:30:36;;;;;;;4.93;2.22;;;9.30;81.90;;;;;;5095154;28;20514;-53
2022/01/10 04:33:02;;;;;;;2.78;1.73;;;9.60;82.00;;;;;;5094318;28;20395;-53
2022/01/10 04:35:30;;;;;;;2.85;1.75;;;9.30;81.90;;;;;;5094726;28;20107;-52
2022/01/10 04:37:56;;;;;;;5.07;2.38;;;9.30;81.90;;;;;;5094811;28;20123;-52
2022/01/10 04:40:27;;;;;;;2.10;1.55;;;9.30;81.90;;;;;;5094258;28;20484;-62
2022/01/10 04:42:53;;;;;;;3.33;1.92;;;9.30;81.90;;;;;;5094571;28;20127;-60
2022/01/10 04:45:19;;;;;;;3.55;1.73;;;9.30;81.90;;;;;;5094521;28;20040;-51
2022/01/10 04:47:45;;;;;;;3.58;2.40;;;9.40;82.00;;;;;;5096862;28;20047;-51
2022/01/10 04:52:50;;;;;;;2.50;1.50;;;9.40;82.00;;;;;;5103805;28;20480;-51
2022/01/10 04:55:16;;;;;;;4.05;2.15;;;9.30;81.90;;;;;;5094404;28;20044;-53
2022/01/10 04:57:41;;;;;;;3.22;2.10;;;9.30;81.90;;;;;;5094360;28;20075;-53
2022/01/10 05:00:12;;;;;;;2.97;2.10;;;9.30;81.90;;;;;;5094629;28;20139;-50
2022/01/10 05:02:39;;;;;;;2.63;2.05;;;9.30;81.90;;;;;;5094586;28;20607;-56
2022/01/10 05:05:05;;;;;;;3.35;2.00;;;9.30;81.90;;;;;;5106281;28;20040;-54
2022/01/10 05:07:31;;;;;;;2.63;1.85;;;9.30;81.90;;;;;;5114947;28;20065;-51
2022/01/10 05:09:59;;;;;;;3.50;1.95;;;9.30;81.90;;;;;;5114821;28;20058;-53
2022/01/10 05:12:28;;;;;;;3.35;2.20;;;9.30;81.90;;;;;;5114218;28;20567;-61
2022/01/10 05:14:53;;;;;;;3.03;1.90;;;9.30;81.90;;;;;;5114417;28;20569;-51
2022/01/10 05:17:20;;;;;;;3.05;1.90;;;9.40;82.00;;;;;;5095900;28;20051;-52
2022/01/10 05:19:46;;;;;;;4.20;2.05;;;9.30;81.90;;;;;;5114705;28;20395;-51
2022/01/10 05:22:12;;;;;;;2.80;2.15;;;9.30;81.90;;;;;;5114506;28;20047;-49
2022/01/10 05:24:38;;;;;;;4.05;2.15;;;9.30;81.90;;;;;;5114382;28;20039;-56
2022/01/10 05:27:04;;;;;;;3.72;2.20;;;9.30;81.90;;;;;;5114068;28;20126;-48
2022/01/10 05:29:30;;;;;;;4.25;2.45;;;9.30;81.90;;;;;;5114423;28;20050;-49
2022/01/10 05:31:56;;;;;;;2.90;2.22;;;9.30;81.90;;;;;;5114203;28;20054;-52
2022/01/10 05:34:22;;;;;;;3.42;1.90;;;9.30;81.90;;;;;;5114176;28;20127;-53
2022/01/10 05:36:48;;;;;;;3.20;2.13;;;9.30;81.90;;;;;;5114321;28;20047;-50
2022/01/10 05:39:14;;;;;;;4.03;2.28;;;9.30;81.90;;;;;;5114296;28;20043;-51
2022/01/10 05:41:40;;;;;;;4.68;2.00;;;9.40;81.90;;;;;;5101416;28;20044;-49
2022/01/10 05:44:06;;;;;;;2.35;2.15;;;9.30;81.90;;;;;;5093002;28;20416;-52
2022/01/10 05:46:36;;;;;;;3.30;2.30;;;9.30;81.80;;;;;;5093154;28;20143;-50
2022/01/10 05:49:03;;;;;;;2.97;2.00;;;9.30;81.80;;;;;;5092828;28;20562;-50
2022/01/10 05:51:34;;;;;;;3.80;2.20;;;9.30;81.90;;;;;;5075103;28;20522;-52
2022/01/10 05:54:01;;;;;;;2.17;1.88;;;9.30;81.90;;;;;;5092993;28;20080;-52
2022/01/10 05:56:27;;;;;;;3.20;2.20;;;9.40;81.90;;;;;;5093306;28;20043;-50
2022/01/10 05:58:52;;;;;;;3.05;1.90;;;9.20;81.80;;;;;;5092566;28;20177;-51
2022/01/10 06:01:18;;;;;;;4.65;2.40;;;9.30;81.90;;;;;;5094393;28;20093;-47
2022/01/10 06:03:44;;;;;;;4.07;2.65;;;9.30;81.90;;;;;;5108713;28;20399;-49
2022/01/10 06:06:10;;;;;;;3.70;2.42;;;9.30;81.90;;;;;;5093337;28;20077;-50
2022/01/10 06:08:36;;;;;;;3.92;2.72;;;9.30;81.90;;;;;;5093203;28;20050;-49
2022/01/10 06:11:02;;;;;;;3.60;2.33;;;9.30;81.90;;;;;;5093077;28;20124;-52
2022/01/10 06:13:27;;;;;;;3.83;2.40;;;9.30;81.80;;;;;;5092818;28;20500;-50
2022/01/10 06:15:53;;;;;;;4.03;2.50;;;9.30;82.50;;;;;;5078644;28;20059;-46
2022/01/10 06:18:19;;;;;;;3.53;2.38;;;9.30;81.80;;;;;;5113341;28;20055;-53
2022/01/10 06:20:45;;;;;;;2.55;2.30;;;9.30;81.90;;;;;;5077901;28;20519;-49
2022/01/10 06:23:11;;;;;;;3.75;2.50;;;9.30;81.90;;;;;;5113545;28;20082;-49
2022/01/10 06:25:40;;;;;;;3.97;2.72;;;9.20;81.80;;;;;;5113435;28;20051;-51
2022/01/10 06:28:07;;;;;;;3.45;2.10;;;9.30;81.80;;;;;;5113376;28;20081;-52
2022/01/10 06:30:33;;;;;;;3.50;2.70;;;9.20;81.80;;;;;;5113020;28;20051;-49
2022/01/10 06:32:59;;;;;;;4.57;3.13;;;9.20;81.80;;;;;;5112970;28;20043;-50
2022/01/10 06:35:25;;;;;;;3.92;2.90;;;9.20;81.80;;;;;;5113209;28;20050;-52
2022/01/10 06:37:51;;;;;;;3.17;2.65;;;9.20;81.80;;;;;;5113409;28;20031;-48
2022/01/10 06:40:17;;;;;;;3.53;2.78;;;9.30;81.80;;;;;;5113332;28;20062;-50
2022/01/10 06:42:43;;;;;;;4.47;2.63;;;9.30;81.80;;;;;;5113383;28;20043;-48
2022/01/10 06:45:10;;;;;;;3.50;2.80;;;9.30;81.90;;;;;;5113400;28;20047;-49
2022/01/10 06:47:36;;;;;;;3.50;2.85;;;9.20;81.80;;;;;;5112268;28;20051;-49
2022/01/10 06:50:04;;;;;;;4.15;2.72;;;9.30;81.80;;;;;;5112523;28;20047;-48
2022/01/10 06:52:29;;;;;;;3.50;2.55;;;9.20;81.80;;;;;;5107673;28;20046;-53
2022/01/10 06:54:55;;;;;;;3.58;2.80;;;9.20;81.80;;;;;;5074231;28;20131;-49
2022/01/10 06:57:21;;;;;;;3.83;2.58;;;9.20;81.80;;;;;;5092728;28;20477;-53
2022/01/10 06:59:47;;;;;;;4.50;2.90;;;9.30;81.80;;;;;;5092711;28;20119;-50
2022/01/10 07:02:12;;;;;;;3.72;2.55;;;9.20;81.80;;;;;;5092143;28;20040;-49
2022/01/10 07:04:38;;;;;;;3.22;2.70;;;9.20;81.80;;;;;;5095005;28;20080;-45
2022/01/10 07:07:05;;;;;;;4.97;2.83;;;9.30;81.90;;;;;;5113032;28;20428;-50
2022/01/10 07:09:31;;;;;;;3.83;3.00;;;9.30;81.80;;;;;;5102590;28;20081;-50
2022/01/10 07:11:57;;;;;;;3.97;2.75;;;9.20;81.80;;;;;;5092660;28;20048;-50
2022/01/10 07:14:23;;;;;;;3.88;2.67;;;9.20;81.80;;;;;;5092514;28;20036;-49
2022/01/10 07:16:50;;;;;;;4.25;2.50;;;9.20;81.80;;;;;;5092479;28;20040;-53
2022/01/10 07:19:17;;;;;;;3.00;2.53;;;9.20;81.80;;;;;;5073405;28;20048;-48
2022/01/10 07:21:43;;;;;;;3.45;2.83;;;9.20;81.80;;;;;;5102703;28;20337;-47
2022/01/10 07:24:09;;;;;;;3.78;3.03;;;9.20;81.80;;;;;;5094065;28;20060;-47
2022/01/10 07:26:35;;;;;;;4.90;2.83;;;9.20;81.80;;;;;;5112754;28;20104;-53
2022/01/10 07:29:03;;;;;;;3.58;3.00;;;9.20;81.80;;;;;;5112411;28;20036;-53
2022/01/10 07:31:29;;;;;;;4.13;2.95;;;9.20;81.80;;;;;;5111962;28;20031;-53
2022/01/10 07:33:56;;;;;;;3.60;3.00;;;9.20;81.80;;;;;;5111434;28;20055;-44
2022/01/10 07:36:23;;;;;;;5.22;3.30;;;9.20;81.80;;;;;;5111430;28;20043;-53
2022/01/10 07:38:49;;;;;;;4.85;3.40;;;9.40;81.90;;;;;;5111472;28;20039;-49
2022/01/10 07:41:15;;;;;;;3.20;2.90;;;9.20;81.80;;;;;;5111955;28;20560;-59
2022/01/10 07:43:41;;;;;;;4.53;3.30;;;9.20;81.80;;;;;;5112336;28;20038;-64
2022/01/10 07:46:07;;;;;;;4.75;3.13;;;9.20;81.80;;;;;;5112135;28;20055;-63
2022/01/10 07:48:35;;;;;;;3.63;3.17;;;9.20;81.80;;;;;;5112410;28;20039;-60
2022/01/10 07:51:03;;;;;;;3.80;3.17;;;9.30;81.90;;;;;;5093433;28;20092;-51
2022/01/10 07:53:29;;;;;;;4.63;3.30;;;9.20;81.80;;;;;;5112409;28;20067;-54
2022/01/10 07:55:55;;;;;;;3.38;3.08;;;9.20;81.80;;;;;;5112413;28;20386;-55
2022/01/10 07:58:21;;;;;;;4.20;3.03;;;9.20;81.80;;;;;;5100272;28;20036;-54
2022/01/10 08:00:49;;;;;;;4.22;3.05;;;9.20;81.80;;;;;;5092375;28;20055;-54
2022/01/10 08:03:14;;;;;;;4.15;3.20;;;9.20;81.80;;;;;;5095719;28;20043;-56
2022/01/10 08:05:40;;;;;;;4.93;3.45;;;9.20;81.80;;;;;;5094643;28;20476;-51
2022/01/10 08:08:06;;;;;;;4.13;3.65;;;9.20;81.80;;;;;;5094664;28;20044;-50
2022/01/10 08:10:32;;;;;;;4.45;3.17;;;9.20;81.80;;;;;;5094782;28;20450;-51
2022/01/10 08:12:58;;;;;;;5.25;3.85;;;9.20;81.70;;;;;;5095039;28;20055;-52
2022/01/10 08:15:23;;;;;;;4.45;3.42;;;9.20;81.70;;;;;;5094788;28;20107;-60
2022/01/10 08:17:49;;;;;;;4.38;3.30;;;9.20;81.70;;;;;;5093955;28;20052;-60
2022/01/10 08:20:15;;;;;;;6.38;4.10;;;9.20;81.70;;;;;;5094528;28;20121;-50
2022/01/10 08:22:41;;;;;;;4.38;3.50;;;9.20;81.70;;;;;;5093868;28;20040;-59
2022/01/10 08:25:07;;;;;;;4.13;3.67;;;9.30;81.80;;;;;;5113695;28;20505;-59
2022/01/10 08:27:34;;;;;;;5.70;3.75;;;9.20;81.70;;;;;;5110286;28;20039;-63
2022/01/10 08:30:01;;;;;;;5.43;3.58;;;9.20;81.70;;;;;;5095117;28;20108;-61
2022/01/10 08:32:26;;;;;;;4.78;4.05;;;9.20;81.70;;;;;;5095254;28;20048;-54
2022/01/10 08:34:52;;;;;;;4.40;3.95;;;9.10;81.60;;;;;;5094981;28;20484;-51
2022/01/10 08:37:18;;;;;;;4.85;3.83;;;9.20;81.70;;;;;;5076491;28;20052;-50
2022/01/10 08:39:49;;;;;;;4.43;3.60;;;9.20;81.70;;;;;;5099921;28;20044;-51
2022/01/10 08:42:16;;;;;;;5.65;4.10;;;9.20;81.70;;;;;;5115166;28;20059;-50
2022/01/10 08:44:42;;;;;;;6.93;4.05;;;9.20;81.70;;;;;;5115652;28;20394;-51
2022/01/10 08:47:09;;;;;;;5.00;4.05;;;9.20;81.70;;;;;;5115310;28;20052;-55
2022/01/10 08:49:34;;;;;;;12.90;9.32;;;9.10;81.60;;;;;;5115474;28;20047;-50
2022/01/10 08:52:00;;;;;;;13.10;10.07;;;9.00;80.10;;;;;;5114789;28;20394;-51
2022/01/10 08:54:26;;;;;;;12.85;9.50;;;8.80;80.60;;;;;;5114478;28;20040;-55
2022/01/10 08:56:54;;;;;;;11.73;9.18;;;8.80;80.80;;;;;;5114862;28;20050;-45
2022/01/10 08:59:20;;;;;;;12.10;8.80;;;8.80;80.90;;;;;;5114693;28;20050;-54
2022/01/10 09:01:47;;;;;;;15.77;10.38;;;8.80;81.00;;;;;;5114395;28;20480;-56
2022/01/10 09:04:16;;;;;;;13.07;10.00;;;8.80;81.00;;;;;;5114808;28;20047;-52
2022/01/10 09:06:46;;;;;;;12.63;9.88;;;8.80;81.10;;;;;;5104194;28;20110;-48
2022/01/10 09:09:13;;;;;;;14.15;9.85;;;8.80;81.10;;;;;;5098390;28;20048;-54
2022/01/10 09:11:39;;;;;;;15.90;10.10;;;8.90;81.10;;;;;;5112887;28;20552;-50
2022/01/10 09:14:06;;;;;;;12.38;9.88;;;9.00;81.20;;;;;;5113401;28;20093;-56
2022/01/10 09:16:32;;;;;;;17.17;12.20;;;8.90;81.20;;;;;;5108322;28;20040;-60
2022/01/10 09:18:58;;;;;;;16.42;11.32;;;8.80;79.70;;;;;;5112791;28;20050;-57
2022/01/10 09:21:24;;;;;;;15.40;11.77;;;8.70;80.10;;;;;;5093219;28;20047;-55
2022/01/10 09:23:50;;;;;;;15.50;12.38;;;8.60;80.30;;;;;;5093722;28;20044;-56
2022/01/10 09:26:16;;;;;;;16.00;12.43;;;8.60;80.60;;;;;;5113064;28;20047;-55
2022/01/10 09:28:43;;;;;;;14.88;11.80;;;8.60;80.80;;;;;;5102828;28;20035;-56
2022/01/10 09:31:12;;;;;;;17.27;12.27;;;8.60;80.90;;;;;;5095890;28;20098;-56
2022/01/10 09:33:39;;;;;;;15.13;11.65;;;8.60;80.90;;;;;;5091471;28;20203;-52
2022/01/10 09:36:06;;;;;;;14.82;12.57;;;8.60;81.00;;;;;;5109856;28;20052;-62
2022/01/10 09:38:32;;;;;;;15.77;12.07;;;8.60;81.10;;;;;;5109714;28;20106;-58
2022/01/10 09:40:58;;;;;;;17.58;12.15;;;8.50;81.10;;;;;;5109411;28;20051;-51
2022/01/10 09:43:24;;;;;;;14.32;11.55;;;8.60;81.20;;;;;;5108653;28;20107;-51
2022/01/10 09:45:51;;;;;;;17.48;11.70;;;8.60;81.20;;;;;;5109424;28;20089;-54
2022/01/10 09:48:17;;;;;;;14.52;12.20;;;8.60;81.30;;;;;;5109323;28;20090;-60
2022/01/10 09:50:43;;;;;;;15.77;11.15;;;8.60;81.40;;;;;;5109186;28;20080;-49
2022/01/10 09:53:10;;;;;;;16.65;12.43;;;8.60;81.40;;;;;;5109357;28;20491;-55
2022/01/10 09:55:36;;;;;;;16.40;12.50;;;8.60;81.40;;;;;;5109600;28;20053;-56
2022/01/10 09:58:03;;;;;;;12.50;11.07;;;8.60;81.50;;;;;;5108922;28;20039;-53
2022/01/10 10:00:29;;;;;;;15.13;11.05;;;8.70;81.50;;;;;;5109333;28;20104;-54
2022/01/10 10:02:55;;;;;;;14.10;10.90;;;8.70;81.60;;;;;;5109364;28;20093;-51
2022/01/10 10:05:21;;;;;;;12.85;11.05;;;8.70;81.50;;;;;;5109263;28;20040;-51
2022/01/10 10:07:48;;;;;;;14.32;11.55;;;8.70;81.60;;;;;;5109332;28;20044;-56
2022/01/10 10:10:14;;;;;;;12.07;10.38;;;8.70;81.60;;;;;;5109016;28;20039;-53
2022/01/10 10:12:42;;;;;;;13.82;10.68;;;8.70;81.60;;;;;;5109269;28;20461;-58
2022/01/10 10:15:12;;;;;;;13.05;10.63;;;8.70;81.60;;;;;;5109565;28;20067;-51
2022/01/10 10:17:39;;;;;;;13.57;11.10;;;8.80;81.70;;;;;;5109229;28;20048;-52
2022/01/10 10:20:17;;;;;;;12.63;10.20;;;8.70;81.60;;;;;;5108774;28;20525;-48
2022/01/10 10:22:46;;;;;;;13.27;11.23;;;8.80;81.70;;;;;;5106410;28;20056;-57
2022/01/10 10:25:13;;;;;;;13.30;10.50;;;8.70;81.60;;;;;;5109114;28;20039;-54
2022/01/10 10:27:41;;;;;;;12.52;10.60;;;8.70;81.60;;;;;;5099414;28;20039;-55
2022/01/10 10:30:18;;;;;;;12.38;9.90;;;8.70;81.60;;;;;;5088380;28;20617;-47
2022/01/10 10:32:44;;;;;;;12.48;11.05;;;8.80;81.70;;;;;;5088451;28;20044;-49
2022/01/10 10:35:11;;;;;;;13.73;10.75;;;8.70;81.60;;;;;;5088516;28;20048;-50
2022/01/10 10:37:40;;;;;;;12.90;10.20;;;8.80;81.70;;;;;;5088508;28;20554;-51
2022/01/10 10:40:14;;;;;;;12.32;10.50;;;8.80;81.70;;;;;;5088994;28;20148;-44
2022/01/10 10:42:42;;;;;;;13.45;10.90;;;8.80;82.30;;;;;;5088896;28;20457;-54
2022/01/10 10:45:10;;;;;;;14.85;10.75;;;8.90;81.80;;;;;;5069838;28;20040;-51
2022/01/10 10:47:39;;;;;;;11.93;10.50;;;8.80;81.70;;;;;;5088874;28;20091;-52
2022/01/10 10:50:07;;;;;;;12.05;10.02;;;8.80;81.70;;;;;;5109219;28;20423;-53
2022/01/10 10:52:34;;;;;;;13.57;10.48;;;8.80;81.70;;;;;;5099276;28;20135;-57
2022/01/10 10:55:12;;;;;;;12.80;9.75;;;8.80;81.70;;;;;;5089039;28;20052;-56
2022/01/10 10:57:39;;;;;;;11.52;10.07;;;8.80;81.70;;;;;;5088431;28;20047;-55
2022/01/10 11:00:09;;;;;;;14.05;10.65;;;8.80;81.70;;;;;;5088639;28;20087;-52
2022/01/10 11:02:35;;;;;;;12.13;10.30;;;8.80;81.70;;;;;;5087900;28;20119;-61
2022/01/10 11:05:04;;;;;;;14.57;10.43;;;8.80;81.70;;;;;;5099462;28;20046;-55
2022/01/10 11:07:32;;;;;;;10.45;9.35;;;8.80;81.70;;;;;;5109112;28;20047;-55
2022/01/10 11:09:58;;;;;;;12.20;9.45;;;8.80;81.80;;;;;;5108751;28;20426;-55
2022/01/10 11:12:28;;;;;;;10.55;9.55;;;8.90;81.80;;;;;;5108858;28;20062;-52
2022/01/10 11:14:56;;;;;;;14.52;10.20;;;8.80;81.80;;;;;;5073332;28;20090;-52
2022/01/10 11:17:23;;;;;;;11.07;9.82;;;8.80;81.80;;;;;;5108362;28;20048;-51
2022/01/10 11:20:16;;;;;;;12.85;9.77;;;8.80;81.70;;;;;;5108686;28;20039;-60
2022/01/10 11:22:51;;;;;;;10.65;9.18;;;8.90;81.70;;;;;;5090349;28;20055;-59
2022/01/10 11:25:24;;;;;;;12.55;9.80;;;8.90;81.80;;;;;;5108692;28;20043;-58
2022/01/10 11:27:53;;;;;;;11.18;9.85;;;8.90;81.80;;;;;;5108631;28;20054;-57
2022/01/10 11:30:28;;;;;;;11.48;10.07;;;8.90;81.80;;;;;;5089450;28;20042;-55
2022/01/10 11:33:07;;;;;;;10.57;9.40;;;8.90;81.80;;;;;;5086942;28;20066;-51
2022/01/10 11:35:38;;;;;;;13.13;9.98;;;8.90;81.80;;;;;;5052530;28;20060;-51
2022/01/10 11:38:18;;;;;;;12.95;9.95;;;8.90;81.80;;;;;;5074061;28;20058;-59
2022/01/10 11:40:49;;;;;;;11.18;9.88;;;8.90;81.80;;;;;;5078215;28;20043;-61
2022/01/10 11:43:28;;;;;;;11.57;9.48;;;8.90;81.80;;;;;;5112797;28;20534;-56
2022/01/10 11:46:16;;;;;;;11.80;9.13;;;8.90;81.80;;;;;;5112394;28;20051;-55
2022/01/10 11:49:00;;;;;;;12.43;9.88;;;8.90;81.80;;;;;;5102483;28;20054;-48
2022/01/10 11:51:31;;;;;;;10.63;9.10;;;8.90;81.80;;;;;;5091489;28;20048;-57
2022/01/10 11:54:22;;;;;;;10.65;9.40;;;8.90;81.80;;;;;;5092409;28;20058;-54
2022/01/10 11:56:50;;;;;;;10.70;9.15;;;8.90;81.80;;;;;;5093787;28;20052;-54
2022/01/10 11:59:25;;;;;;;12.00;9.48;;;8.90;81.90;;;;;;5112294;28;20043;-54
2022/01/10 12:02:14;;;;;;;11.25;9.73;;;8.90;81.80;;;;;;5101643;28;20074;-53
2022/01/10 12:04:48;;;;;;;10.50;9.10;;;8.90;81.90;;;;;;5091833;28;20087;-50
2022/01/10 12:07:17;;;;;;;10.15;8.70;;;8.90;81.90;;;;;;5091556;28;20397;-50
2022/01/10 12:09:46;;;;;;;13.10;9.35;;;8.90;81.90;;;;;;5091642;28;20051;-49
2022/01/10 12:12:15;;;;;;;11.50;9.20;;;8.90;81.90;;;;;;5091496;28;20816;-51
2022/01/10 12:14:42;;;;;;;11.13;9.32;;;8.90;81.90;;;;;;5088655;28;20066;-52
2022/01/10 12:17:08;;;;;;;10.15;8.27;;;8.80;81.80;;;;;;5111888;28;20105;-56
2022/01/10 12:19:35;;;;;;;10.30;9.20;;;8.90;82.50;;;;;;5112092;28;20376;-58
2022/01/10 12:22:02;;;;;;;11.88;9.57;;;8.90;81.90;;;;;;5113633;28;20562;-59
2022/01/10 12:24:28;;;;;;;11.60;9.32;;;8.90;81.90;;;;;;5096894;28;20040;-53
2022/01/10 12:26:54;;;;;;;10.07;9.07;;;8.90;81.90;;;;;;5115492;28;20122;-54
2022/01/10 12:29:19;;;;;;;11.05;8.93;;;8.90;81.90;;;;;;5115275;28;20419;-61
2022/01/10 12:31:46;;;;;;;10.18;9.07;;;8.90;81.90;;;;;;5115013;28;20151;-49
2022/01/10 12:34:14;;;;;;;9.93;8.55;;;8.90;81.90;;;;;;5115252;28;20043;-54
2022/01/10 12:36:41;;;;;;;10.63;9.52;;;8.90;81.90;;;;;;5115197;28;20085;-60
2022/01/10 12:39:18;;;;;;;10.82;9.18;;;8.90;81.90;;;;;;5114682;28;20043;-55
2022/01/10 12:41:44;;;;;;;11.45;9.20;;;8.90;81.90;;;;;;5115337;28;20047;-55
2022/01/10 12:44:10;;;;;;;10.15;8.23;;;8.90;81.90;;;;;;5106992;28;20096;-52
2022/01/10 12:46:36;;;;;;;9.25;8.30;;;8.90;81.90;;;;;;5088478;28;20052;-53
2022/01/10 12:49:12;;;;;;;11.95;9.10;;;8.90;81.90;;;;;;5072675;28;20462;-48
2022/01/10 12:51:39;;;;;;;9.93;8.57;;;8.90;81.90;;;;;;5074385;28;20044;-51
2022/01/10 12:54:11;;;;;;;10.35;8.82;;;8.90;81.90;;;;;;5073241;28;20477;-52
2022/01/10 12:56:37;;;;;;;9.82;8.32;;;8.90;81.90;;;;;;5074057;28;20613;-49
2022/01/10 12:59:03;;;;;;;12.82;8.77;;;8.90;81.90;;;;;;5074088;28;20131;-51
2022/01/10 13:01:29;;;;;;;10.75;9.00;;;9.00;82.00;;;;;;5088993;28;20060;-49
2022/01/10 13:03:58;;;;;;;9.40;7.97;;;8.90;81.90;;;;;;5073842;28;20094;-52